createdAt,value
2022-11-24T00:27:18.260Z,4.88
2022-11-24T00:57:18.242Z,5.25
2022-11-24T01:27:18.273Z,5.19
2022-11-24T01:57:18.268Z,5.56
2022-11-24T02:27:18.275Z,5.56
2022-11-24T02:57:18.277Z,5.81
2022-11-24T03:27:18.282Z,6
2022-11-24T03:57:18.281Z,6.06
2022-11-24T04:27:18.293Z,6.13
2022-11-24T04:57:18.291Z,6.13
2022-11-24T05:27:18.298Z,6.5
2022-11-24T05:57:18.311Z,6.75
2022-11-24T06:27:18.302Z,6.25
2022-11-24T06:57:18.311Z,6.25
2022-11-24T07:27:18.291Z,6.56
2022-11-24T07:57:18.286Z,6.69
2022-11-24T08:27:18.307Z,7.19
2022-11-24T08:57:21.792Z,8
2022-11-24T09:27:18.312Z,8.06
2022-11-24T09:57:18.319Z,7.88
2022-11-24T10:27:18.320Z,7.56
2022-11-24T10:57:18.329Z,7.19
2022-11-24T11:27:18.348Z,7.44
2022-11-24T11:57:18.346Z,8
2022-11-24T12:27:22.598Z,8.44
2022-11-24T12:57:18.346Z,8.5
2022-11-24T13:27:18.353Z,8.94
2022-11-24T13:57:18.348Z,8.31
2022-11-24T14:27:18.362Z,7.94
2022-11-24T14:57:18.365Z,7.88
2022-11-24T15:27:18.381Z,7.63
2022-11-24T15:57:18.369Z,7.5
2022-11-24T16:27:18.373Z,7.5
2022-11-24T16:57:18.373Z,7.5
2022-11-24T17:27:18.386Z,7.38
2022-11-24T17:57:18.389Z,6.56
2022-11-24T18:27:18.396Z,5.88
2022-11-24T18:57:18.405Z,5.5
2022-11-24T19:27:18.427Z,5.88
2022-11-24T19:57:18.419Z,6.06
2022-11-24T20:27:18.433Z,5.31
2022-11-24T20:57:18.412Z,5.56
2022-11-24T21:27:18.441Z,5
2022-11-24T21:57:18.423Z,4.5
2022-11-24T22:27:18.426Z,4
2022-11-24T22:57:18.440Z,3.38
2022-11-24T23:27:18.434Z,3.31
2022-11-24T23:57:18.441Z,3.38
